sensor_id;sensor_type;location;lat;lon;timestamp;P1;durP1;ratioP1;P2;durP2;ratioP2
62990;SDS011;49084;48.204;16.202;2023-12-20T00:00:52;32.30;;;12.40;;
62990;SDS011;49084;48.204;16.202;2023-12-20T00:03:17;23.77;;;11.70;;
62990;SDS011;49084;48.204;16.202;2023-12-20T00:05:43;25.70;;;11.80;;
62990;SDS011;49084;48.204;16.202;2023-12-20T00:08:09;22.90;;;11.65;;
62990;SDS011;49084;48.204;16.202;2023-12-20T00:10:35;25.25;;;10.85;;
62990;SDS011;49084;48.204;16.202;2023-12-20T00:13:00;27.80;;;12.30;;
62990;SDS011;49084;48.204;16.202;2023-12-20T00:15:26;27.98;;;12.77;;
62990;SDS011;49084;48.204;16.202;2023-12-20T00:17:51;20.92;;;11.52;;
62990;SDS011;49084;48.204;16.202;2023-12-20T00:20:17;25.58;;;12.57;;
62990;SDS011;49084;48.204;16.202;2023-12-20T00:22:43;31.00;;;13.52;;
62990;SDS011;49084;48.204;16.202;2023-12-20T00:25:08;33.03;;;13.52;;
62990;SDS011;49084;48.204;16.202;2023-12-20T00:27:34;24.38;;;11.13;;
62990;SDS011;49084;48.204;16.202;2023-12-20T00:30:00;25.00;;;12.02;;
62990;SDS011;49084;48.204;16.202;2023-12-20T00:32:25;27.95;;;11.48;;
62990;SDS011;49084;48.204;16.202;2023-12-20T00:34:51;29.90;;;12.38;;
62990;SDS011;49084;48.204;16.202;2023-12-20T00:37:16;24.42;;;9.98;;
62990;SDS011;49084;48.204;16.202;2023-12-20T00:39:42;23.55;;;10.98;;
62990;SDS011;49084;48.204;16.202;2023-12-20T00:42:07;24.58;;;10.95;;
62990;SDS011;49084;48.204;16.202;2023-12-20T00:44:33;22.63;;;11.05;;
62990;SDS011;49084;48.204;16.202;2023-12-20T00:46:59;31.52;;;13.13;;
62990;SDS011;49084;48.204;16.202;2023-12-20T00:49:24;25.40;;;12.25;;
62990;SDS011;49084;48.204;16.202;2023-12-20T00:51:50;28.00;;;12.13;;
62990;SDS011;49084;48.204;16.202;2023-12-20T00:54:17;25.33;;;10.82;;
62990;SDS011;49084;48.204;16.202;2023-12-20T00:56:43;25.05;;;11.20;;
62990;SDS011;49084;48.204;16.202;2023-12-20T00:59:09;27.20;;;13.02;;
62990;SDS011;49084;48.204;16.202;2023-12-20T01:01:34;33.30;;;13.40;;
62990;SDS011;49084;48.204;16.202;2023-12-20T01:04:00;24.70;;;11.35;;
62990;SDS011;49084;48.204;16.202;2023-12-20T01:06:26;20.77;;;10.55;;
62990;SDS011;49084;48.204;16.202;2023-12-20T01:08:51;24.83;;;12.23;;
62990;SDS011;49084;48.204;16.202;2023-12-20T01:11:17;26.75;;;12.98;;
62990;SDS011;49084;48.204;16.202;2023-12-20T01:13:42;22.77;;;11.57;;
62990;SDS011;49084;48.204;16.202;2023-12-20T01:16:09;26.20;;;12.43;;
62990;SDS011;49084;48.204;16.202;2023-12-20T01:18:36;25.38;;;12.50;;
62990;SDS011;49084;48.204;16.202;2023-12-20T01:21:02;28.27;;;11.70;;
62990;SDS011;49084;48.204;16.202;2023-12-20T01:23:28;21.98;;;12.23;;
62990;SDS011;49084;48.204;16.202;2023-12-20T01:25:54;28.92;;;11.98;;
62990;SDS011;49084;48.204;16.202;2023-12-20T01:28:20;26.95;;;11.48;;
62990;SDS011;49084;48.204;16.202;2023-12-20T01:30:46;22.88;;;12.00;;
62990;SDS011;49084;48.204;16.202;2023-12-20T01:33:11;23.23;;;11.98;;
62990;SDS011;49084;48.204;16.202;2023-12-20T01:35:37;24.75;;;11.27;;
62990;SDS011;49084;48.204;16.202;2023-12-20T01:38:03;21.85;;;10.05;;
62990;SDS011;49084;48.204;16.202;2023-12-20T01:40:28;23.27;;;10.80;;
62990;SDS011;49084;48.204;16.202;2023-12-20T01:42:58;22.33;;;9.88;;
62990;SDS011;49084;48.204;16.202;2023-12-20T01:45:37;16.98;;;9.27;;
62990;SDS011;49084;48.204;16.202;2023-12-20T01:48:03;23.10;;;10.48;;
62990;SDS011;49084;48.204;16.202;2023-12-20T01:50:31;21.77;;;10.35;;
62990;SDS011;49084;48.204;16.202;2023-12-20T01:52:58;21.52;;;10.02;;
62990;SDS011;49084;48.204;16.202;2023-12-20T01:55:27;18.35;;;10.27;;
62990;SDS011;49084;48.204;16.202;2023-12-20T01:57:55;18.50;;;9.73;;
62990;SDS011;49084;48.204;16.202;2023-12-20T02:00:22;18.98;;;10.25;;
62990;SDS011;49084;48.204;16.202;2023-12-20T02:02:49;18.85;;;9.13;;
62990;SDS011;49084;48.204;16.202;2023-12-20T02:05:17;13.85;;;6.30;;
62990;SDS011;49084;48.204;16.202;2023-12-20T02:07:43;5.38;;;2.50;;
62990;SDS011;49084;48.204;16.202;2023-12-20T02:10:08;3.15;;;1.35;;
62990;SDS011;49084;48.204;16.202;2023-12-20T02:12:34;5.90;;;1.40;;
62990;SDS011;49084;48.204;16.202;2023-12-20T02:15:00;1.67;;;1.20;;
62990;SDS011;49084;48.204;16.202;2023-12-20T02:17:26;1.45;;;0.80;;
62990;SDS011;49084;48.204;16.202;2023-12-20T02:19:52;1.92;;;0.75;;
62990;SDS011;49084;48.204;16.202;2023-12-20T02:22:18;1.08;;;0.82;;
62990;SDS011;49084;48.204;16.202;2023-12-20T02:24:44;1.40;;;1.05;;
62990;SDS011;49084;48.204;16.202;2023-12-20T02:27:09;4.53;;;1.15;;
62990;SDS011;49084;48.204;16.202;2023-12-20T02:29:35;1.30;;;1.10;;
62990;SDS011;49084;48.204;16.202;2023-12-20T02:32:01;1.75;;;0.93;;
62990;SDS011;49084;48.204;16.202;2023-12-20T02:34:28;2.28;;;0.93;;
62990;SDS011;49084;48.204;16.202;2023-12-20T02:36:53;1.75;;;1.02;;
62990;SDS011;49084;48.204;16.202;2023-12-20T02:39:19;1.70;;;1.17;;
62990;SDS011;49084;48.204;16.202;2023-12-20T02:41:45;2.50;;;1.20;;
62990;SDS011;49084;48.204;16.202;2023-12-20T02:44:11;2.92;;;1.30;;
62990;SDS011;49084;48.204;16.202;2023-12-20T02:46:37;1.67;;;0.95;;
62990;SDS011;49084;48.204;16.202;2023-12-20T02:49:02;2.28;;;1.20;;
62990;SDS011;49084;48.204;16.202;2023-12-20T02:51:28;1.95;;;1.27;;
62990;SDS011;49084;48.204;16.202;2023-12-20T02:53:54;1.42;;;1.20;;
62990;SDS011;49084;48.204;16.202;2023-12-20T02:56:19;4.53;;;1.38;;
62990;SDS011;49084;48.204;16.202;2023-12-20T02:58:45;2.08;;;1.52;;
62990;SDS011;49084;48.204;16.202;2023-12-20T03:01:10;3.20;;;1.50;;
62990;SDS011;49084;48.204;16.202;2023-12-20T03:03:36;2.28;;;1.30;;
62990;SDS011;49084;48.204;16.202;2023-12-20T03:06:02;1.90;;;1.30;;
62990;SDS011;49084;48.204;16.202;2023-12-20T03:08:27;2.50;;;1.40;;
62990;SDS011;49084;48.204;16.202;2023-12-20T03:10:53;6.18;;;2.13;;
62990;SDS011;49084;48.204;16.202;2023-12-20T03:13:19;3.50;;;1.30;;
62990;SDS011;49084;48.204;16.202;2023-12-20T03:15:45;2.08;;;1.50;;
62990;SDS011;49084;48.204;16.202;2023-12-20T03:18:11;2.50;;;1.40;;
62990;SDS011;49084;48.204;16.202;2023-12-20T03:20:36;1.70;;;1.48;;
62990;SDS011;49084;48.204;16.202;2023-12-20T03:23:02;1.90;;;1.38;;
62990;SDS011;49084;48.204;16.202;2023-12-20T03:25:28;2.55;;;1.52;;
62990;SDS011;49084;48.204;16.202;2023-12-20T03:27:54;3.13;;;1.90;;
62990;SDS011;49084;48.204;16.202;2023-12-20T03:30:19;2.58;;;1.50;;
62990;SDS011;49084;48.204;16.202;2023-12-20T03:32:45;3.08;;;1.40;;
62990;SDS011;49084;48.204;16.202;2023-12-20T03:35:11;3.47;;;1.65;;
62990;SDS011;49084;48.204;16.202;2023-12-20T03:37:37;3.20;;;1.75;;
62990;SDS011;49084;48.204;16.202;2023-12-20T03:40:02;3.47;;;1.52;;
62990;SDS011;49084;48.204;16.202;2023-12-20T03:42:28;1.83;;;1.55;;
62990;SDS011;49084;48.204;16.202;2023-12-20T03:44:54;2.60;;;1.65;;
62990;SDS011;49084;48.204;16.202;2023-12-20T03:47:20;3.22;;;1.75;;
62990;SDS011;49084;48.204;16.202;2023-12-20T03:49:45;1.70;;;1.40;;
62990;SDS011;49084;48.204;16.202;2023-12-20T03:52:11;2.20;;;1.20;;
62990;SDS011;49084;48.204;16.202;2023-12-20T03:54:37;2.97;;;1.63;;
62990;SDS011;49084;48.204;16.202;2023-12-20T03:57:03;2.28;;;1.30;;
62990;SDS011;49084;48.204;16.202;2023-12-20T03:59:29;2.10;;;1.90;;
62990;SDS011;49084;48.204;16.202;2023-12-20T04:01:59;1.90;;;1.40;;
62990;SDS011;49084;48.204;16.202;2023-12-20T04:04:25;1.77;;;1.30;;
62990;SDS011;49084;48.204;16.202;2023-12-20T04:06:50;2.30;;;1.38;;
62990;SDS011;49084;48.204;16.202;2023-12-20T04:09:16;2.28;;;1.30;;
62990;SDS011;49084;48.204;16.202;2023-12-20T04:11:41;3.70;;;1.52;;
62990;SDS011;49084;48.204;16.202;2023-12-20T04:14:07;3.08;;;1.20;;
62990;SDS011;49084;48.204;16.202;2023-12-20T04:16:33;3.40;;;1.40;;
62990;SDS011;49084;48.204;16.202;2023-12-20T04:18:58;1.92;;;1.20;;
62990;SDS011;49084;48.204;16.202;2023-12-20T04:21:24;2.42;;;1.60;;
62990;SDS011;49084;48.204;16.202;2023-12-20T04:23:49;2.65;;;1.50;;
62990;SDS011;49084;48.204;16.202;2023-12-20T04:26:15;2.53;;;1.30;;
62990;SDS011;49084;48.204;16.202;2023-12-20T04:28:40;2.13;;;1.42;;
62990;SDS011;49084;48.204;16.202;2023-12-20T04:31:07;2.30;;;1.20;;
62990;SDS011;49084;48.204;16.202;2023-12-20T04:33:32;4.25;;;1.50;;
62990;SDS011;49084;48.204;16.202;2023-12-20T04:35:58;2.45;;;1.33;;
62990;SDS011;49084;48.204;16.202;2023-12-20T04:38:24;3.08;;;2.42;;
62990;SDS011;49084;48.204;16.202;2023-12-20T04:40:50;3.22;;;2.00;;
62990;SDS011;49084;48.204;16.202;2023-12-20T04:43:16;1.92;;;1.73;;
62990;SDS011;49084;48.204;16.202;2023-12-20T04:45:42;4.53;;;2.03;;
62990;SDS011;49084;48.204;16.202;2023-12-20T04:48:08;4.10;;;2.35;;
62990;SDS011;49084;48.204;16.202;2023-12-20T04:50:34;4.32;;;2.20;;
62990;SDS011;49084;48.204;16.202;2023-12-20T04:52:59;2.53;;;1.83;;
62990;SDS011;49084;48.204;16.202;2023-12-20T04:55:25;3.83;;;2.05;;
62990;SDS011;49084;48.204;16.202;2023-12-20T04:57:50;2.55;;;1.95;;
62990;SDS011;49084;48.204;16.202;2023-12-20T05:00:16;4.63;;;2.45;;
62990;SDS011;49084;48.204;16.202;2023-12-20T05:02:42;2.83;;;1.90;;
62990;SDS011;49084;48.204;16.202;2023-12-20T05:05:07;3.10;;;2.05;;
62990;SDS011;49084;48.204;16.202;2023-12-20T05:07:33;4.28;;;1.83;;
62990;SDS011;49084;48.204;16.202;2023-12-20T05:09:59;2.78;;;1.90;;
62990;SDS011;49084;48.204;16.202;2023-12-20T05:12:25;4.50;;;2.30;;
62990;SDS011;49084;48.204;16.202;2023-12-20T05:14:51;3.40;;;2.20;;
62990;SDS011;49084;48.204;16.202;2023-12-20T05:17:17;4.05;;;2.38;;
62990;SDS011;49084;48.204;16.202;2023-12-20T05:19:43;4.65;;;2.35;;
62990;SDS011;49084;48.204;16.202;2023-12-20T05:22:08;5.43;;;2.40;;
62990;SDS011;49084;48.204;16.202;2023-12-20T05:24:34;5.28;;;2.53;;
62990;SDS011;49084;48.204;16.202;2023-12-20T05:27:00;6.00;;;2.95;;
62990;SDS011;49084;48.204;16.202;2023-12-20T05:29:26;3.70;;;2.28;;
62990;SDS011;49084;48.204;16.202;2023-12-20T05:31:51;6.95;;;2.53;;
62990;SDS011;49084;48.204;16.202;2023-12-20T05:34:17;4.50;;;2.35;;
62990;SDS011;49084;48.204;16.202;2023-12-20T05:36:43;3.45;;;2.35;;
62990;SDS011;49084;48.204;16.202;2023-12-20T05:39:08;6.55;;;2.70;;
62990;SDS011;49084;48.204;16.202;2023-12-20T05:41:34;3.47;;;2.00;;
62990;SDS011;49084;48.204;16.202;2023-12-20T05:43:59;4.75;;;2.10;;
62990;SDS011;49084;48.204;16.202;2023-12-20T05:46:25;5.05;;;2.40;;
62990;SDS011;49084;48.204;16.202;2023-12-20T05:48:51;2.38;;;1.95;;
62990;SDS011;49084;48.204;16.202;2023-12-20T05:51:17;7.40;;;2.33;;
62990;SDS011;49084;48.204;16.202;2023-12-20T05:53:43;3.78;;;2.08;;
62990;SDS011;49084;48.204;16.202;2023-12-20T05:56:09;3.65;;;2.67;;
62990;SDS011;49084;48.204;16.202;2023-12-20T05:58:35;4.60;;;2.35;;
62990;SDS011;49084;48.204;16.202;2023-12-20T06:01:00;3.83;;;2.42;;
62990;SDS011;49084;48.204;16.202;2023-12-20T06:03:29;8.33;;;2.57;;
62990;SDS011;49084;48.204;16.202;2023-12-20T06:05:54;3.70;;;2.05;;
62990;SDS011;49084;48.204;16.202;2023-12-20T06:08:20;4.60;;;1.90;;
62990;SDS011;49084;48.204;16.202;2023-12-20T06:10:45;3.33;;;2.40;;
62990;SDS011;49084;48.204;16.202;2023-12-20T06:13:11;3.92;;;2.05;;
62990;SDS011;49084;48.204;16.202;2023-12-20T06:15:38;5.20;;;2.45;;
62990;SDS011;49084;48.204;16.202;2023-12-20T06:18:05;4.55;;;1.88;;
62990;SDS011;49084;48.204;16.202;2023-12-20T06:20:30;3.95;;;2.40;;
62990;SDS011;49084;48.204;16.202;2023-12-20T06:22:57;5.00;;;2.42;;
62990;SDS011;49084;48.204;16.202;2023-12-20T06:25:23;2.53;;;1.73;;
62990;SDS011;49084;48.204;16.202;2023-12-20T06:27:48;1.73;;;1.55;;
62990;SDS011;49084;48.204;16.202;2023-12-20T06:30:15;7.07;;;2.45;;
62990;SDS011;49084;48.204;16.202;2023-12-20T06:32:41;2.42;;;1.48;;
62990;SDS011;49084;48.204;16.202;2023-12-20T06:35:08;3.28;;;1.70;;
62990;SDS011;49084;48.204;16.202;2023-12-20T06:37:33;4.55;;;2.08;;
62990;SDS011;49084;48.204;16.202;2023-12-20T06:39:59;3.75;;;1.80;;
62990;SDS011;49084;48.204;16.202;2023-12-20T06:42:25;4.05;;;2.17;;
62990;SDS011;49084;48.204;16.202;2023-12-20T06:44:50;2.95;;;1.88;;
62990;SDS011;49084;48.204;16.202;2023-12-20T06:47:16;4.38;;;1.85;;
62990;SDS011;49084;48.204;16.202;2023-12-20T06:49:41;3.60;;;1.90;;
62990;SDS011;49084;48.204;16.202;2023-12-20T06:52:07;3.47;;;1.85;;
62990;SDS011;49084;48.204;16.202;2023-12-20T06:54:33;4.85;;;2.10;;
62990;SDS011;49084;48.204;16.202;2023-12-20T06:56:59;2.33;;;1.67;;
62990;SDS011;49084;48.204;16.202;2023-12-20T06:59:25;5.30;;;1.90;;
62990;SDS011;49084;48.204;16.202;2023-12-20T07:01:51;3.20;;;2.15;;
62990;SDS011;49084;48.204;16.202;2023-12-20T07:04:17;4.15;;;2.40;;
62990;SDS011;49084;48.204;16.202;2023-12-20T07:06:47;3.28;;;2.08;;
62990;SDS011;49084;48.204;16.202;2023-12-20T07:09:13;3.38;;;2.10;;
62990;SDS011;49084;48.204;16.202;2023-12-20T07:11:39;5.20;;;2.50;;
62990;SDS011;49084;48.204;16.202;2023-12-20T07:14:05;3.67;;;2.25;;
62990;SDS011;49084;48.204;16.202;2023-12-20T07:16:30;3.63;;;2.25;;
62990;SDS011;49084;48.204;16.202;2023-12-20T07:18:56;4.03;;;2.13;;
62990;SDS011;49084;48.204;16.202;2023-12-20T07:21:22;3.65;;;2.55;;
62990;SDS011;49084;48.204;16.202;2023-12-20T07:23:48;3.78;;;2.80;;
62990;SDS011;49084;48.204;16.202;2023-12-20T07:26:14;4.07;;;2.50;;
62990;SDS011;49084;48.204;16.202;2023-12-20T07:28:40;4.03;;;2.45;;
62990;SDS011;49084;48.204;16.202;2023-12-20T07:31:06;3.95;;;2.28;;
62990;SDS011;49084;48.204;16.202;2023-12-20T07:33:31;3.60;;;2.40;;
62990;SDS011;49084;48.204;16.202;2023-12-20T07:35:58;4.95;;;2.17;;
62990;SDS011;49084;48.204;16.202;2023-12-20T07:38:24;6.07;;;2.45;;
62990;SDS011;49084;48.204;16.202;2023-12-20T07:40:50;2.80;;;1.80;;
62990;SDS011;49084;48.204;16.202;2023-12-20T07:43:15;3.33;;;2.25;;
62990;SDS011;49084;48.204;16.202;2023-12-20T07:45:41;3.17;;;2.38;;
62990;SDS011;49084;48.204;16.202;2023-12-20T07:48:07;4.60;;;2.53;;
62990;SDS011;49084;48.204;16.202;2023-12-20T07:50:33;6.68;;;3.20;;
62990;SDS011;49084;48.204;16.202;2023-12-20T07:52:59;6.13;;;3.50;;
62990;SDS011;49084;48.204;16.202;2023-12-20T07:55:26;4.28;;;3.05;;
62990;SDS011;49084;48.204;16.202;2023-12-20T07:57:52;6.50;;;2.63;;
62990;SDS011;49084;48.204;16.202;2023-12-20T08:00:18;5.05;;;2.70;;
62990;SDS011;49084;48.204;16.202;2023-12-20T08:02:44;5.68;;;3.15;;
62990;SDS011;49084;48.204;16.202;2023-12-20T08:05:09;5.15;;;3.35;;
62990;SDS011;49084;48.204;16.202;2023-12-20T08:07:35;3.70;;;2.70;;
62990;SDS011;49084;48.204;16.202;2023-12-20T08:10:01;3.88;;;2.88;;
62990;SDS011;49084;48.204;16.202;2023-12-20T08:12:27;6.15;;;2.95;;
62990;SDS011;49084;48.204;16.202;2023-12-20T08:14:53;4.90;;;2.78;;
62990;SDS011;49084;48.204;16.202;2023-12-20T08:17:19;6.20;;;2.88;;
62990;SDS011;49084;48.204;16.202;2023-12-20T08:19:45;8.10;;;3.30;;
62990;SDS011;49084;48.204;16.202;2023-12-20T08:22:11;7.00;;;2.90;;
62990;SDS011;49084;48.204;16.202;2023-12-20T08:24:37;3.95;;;2.70;;
62990;SDS011;49084;48.204;16.202;2023-12-20T08:27:03;6.07;;;2.30;;
62990;SDS011;49084;48.204;16.202;2023-12-20T08:29:29;3.38;;;2.58;;
62990;SDS011;49084;48.204;16.202;2023-12-20T08:31:55;4.00;;;2.83;;
62990;SDS011;49084;48.204;16.202;2023-12-20T08:34:21;6.38;;;2.60;;
62990;SDS011;49084;48.204;16.202;2023-12-20T08:36:47;4.63;;;2.60;;
62990;SDS011;49084;48.204;16.202;2023-12-20T08:39:12;4.57;;;3.00;;
62990;SDS011;49084;48.204;16.202;2023-12-20T08:41:38;5.78;;;3.15;;
62990;SDS011;49084;48.204;16.202;2023-12-20T08:44:04;4.32;;;2.47;;
62990;SDS011;49084;48.204;16.202;2023-12-20T08:46:29;4.22;;;2.42;;
62990;SDS011;49084;48.204;16.202;2023-12-20T08:48:55;3.92;;;2.45;;
62990;SDS011;49084;48.204;16.202;2023-12-20T08:51:21;4.43;;;2.95;;
62990;SDS011;49084;48.204;16.202;2023-12-20T08:53:48;4.55;;;2.70;;
62990;SDS011;49084;48.204;16.202;2023-12-20T08:56:14;4.40;;;2.63;;
62990;SDS011;49084;48.204;16.202;2023-12-20T08:58:40;4.03;;;2.63;;
62990;SDS011;49084;48.204;16.202;2023-12-20T09:01:07;5.75;;;2.55;;
62990;SDS011;49084;48.204;16.202;2023-12-20T09:03:32;3.95;;;2.97;;
62990;SDS011;49084;48.204;16.202;2023-12-20T09:05:58;2.50;;;2.10;;
62990;SDS011;49084;48.204;16.202;2023-12-20T09:08:24;3.88;;;2.53;;
62990;SDS011;49084;48.204;16.202;2023-12-20T09:10:49;3.92;;;2.88;;
62990;SDS011;49084;48.204;16.202;2023-12-20T09:13:15;4.78;;;2.20;;
62990;SDS011;49084;48.204;16.202;2023-12-20T09:15:41;2.65;;;2.00;;
62990;SDS011;49084;48.204;16.202;2023-12-20T09:18:07;3.50;;;2.05;;
62990;SDS011;49084;48.204;16.202;2023-12-20T09:20:33;3.17;;;1.70;;
62990;SDS011;49084;48.204;16.202;2023-12-20T09:22:59;4.35;;;1.60;;
62990;SDS011;49084;48.204;16.202;2023-12-20T09:25:24;4.30;;;1.60;;
62990;SDS011;49084;48.204;16.202;2023-12-20T09:27:51;2.28;;;1.63;;
62990;SDS011;49084;48.204;16.202;2023-12-20T09:30:17;1.60;;;1.23;;
62990;SDS011;49084;48.204;16.202;2023-12-20T09:32:43;2.13;;;1.20;;
62990;SDS011;49084;48.204;16.202;2023-12-20T09:35:09;1.33;;;1.23;;
62990;SDS011;49084;48.204;16.202;2023-12-20T09:37:35;1.20;;;1.10;;
62990;SDS011;49084;48.204;16.202;2023-12-20T09:40:03;1.85;;;1.30;;
62990;SDS011;49084;48.204;16.202;2023-12-20T09:42:47;1.65;;;1.17;;
62990;SDS011;49084;48.204;16.202;2023-12-20T09:45:21;3.40;;;1.58;;
62990;SDS011;49084;48.204;16.202;2023-12-20T09:47:47;1.75;;;1.00;;
62990;SDS011;49084;48.204;16.202;2023-12-20T09:50:20;1.75;;;1.50;;
62990;SDS011;49084;48.204;16.202;2023-12-20T09:52:50;5.25;;;1.48;;
62990;SDS011;49084;48.204;16.202;2023-12-20T09:55:17;5.70;;;2.10;;
62990;SDS011;49084;48.204;16.202;2023-12-20T09:57:47;2.35;;;1.90;;
62990;SDS011;49084;48.204;16.202;2023-12-20T10:00:13;2.65;;;2.35;;
62990;SDS011;49084;48.204;16.202;2023-12-20T10:02:42;3.67;;;2.40;;
62990;SDS011;49084;48.204;16.202;2023-12-20T10:05:15;6.97;;;2.20;;
62990;SDS011;49084;48.204;16.202;2023-12-20T10:10:09;3.10;;;2.17;;
62990;SDS011;49084;48.204;16.202;2023-12-20T10:12:37;2.63;;;2.40;;
62990;SDS011;49084;48.204;16.202;2023-12-20T10:15:03;4.47;;;2.50;;
62990;SDS011;49084;48.204;16.202;2023-12-20T10:17:29;3.22;;;2.35;;
62990;SDS011;49084;48.204;16.202;2023-12-20T10:19:55;3.47;;;1.85;;
62990;SDS011;49084;48.204;16.202;2023-12-20T10:22:21;2.78;;;2.33;;
62990;SDS011;49084;48.204;16.202;2023-12-20T10:24:47;1.65;;;1.40;;
62990;SDS011;49084;48.204;16.202;2023-12-20T10:27:12;2.53;;;1.83;;
62990;SDS011;49084;48.204;16.202;2023-12-20T10:29:38;1.90;;;1.70;;
62990;SDS011;49084;48.204;16.202;2023-12-20T10:32:23;1.35;;;1.25;;
62990;SDS011;49084;48.204;16.202;2023-12-20T10:34:49;2.13;;;1.65;;
62990;SDS011;49084;48.204;16.202;2023-12-20T10:37:15;1.30;;;1.20;;
62990;SDS011;49084;48.204;16.202;2023-12-20T10:39:42;2.20;;;1.70;;
62990;SDS011;49084;48.204;16.202;2023-12-20T10:42:08;2.08;;;1.88;;
62990;SDS011;49084;48.204;16.202;2023-12-20T10:44:36;1.90;;;1.67;;
62990;SDS011;49084;48.204;16.202;2023-12-20T10:47:02;2.65;;;1.98;;
62990;SDS011;49084;48.204;16.202;2023-12-20T10:49:29;3.10;;;1.88;;
62990;SDS011;49084;48.204;16.202;2023-12-20T10:51:56;2.35;;;1.80;;
62990;SDS011;49084;48.204;16.202;2023-12-20T10:54:27;1.83;;;1.70;;
62990;SDS011;49084;48.204;16.202;2023-12-20T10:56:53;2.22;;;1.77;;
62990;SDS011;49084;48.204;16.202;2023-12-20T11:01:48;1.67;;;1.48;;
62990;SDS011;49084;48.204;16.202;2023-12-20T11:04:19;2.13;;;1.70;;
62990;SDS011;49084;48.204;16.202;2023-12-20T11:07:17;4.63;;;1.70;;
62990;SDS011;49084;48.204;16.202;2023-12-20T11:09:57;1.98;;;1.77;;
62990;SDS011;49084;48.204;16.202;2023-12-20T11:14:57;1.55;;;1.13;;
62990;SDS011;49084;48.204;16.202;2023-12-20T11:17:28;1.63;;;1.35;;
62990;SDS011;49084;48.204;16.202;2023-12-20T11:22:22;1.65;;;1.38;;
62990;SDS011;49084;48.204;16.202;2023-12-20T11:24:53;2.35;;;1.13;;
62990;SDS011;49084;48.204;16.202;2023-12-20T11:27:31;2.88;;;1.23;;
62990;SDS011;49084;48.204;16.202;2023-12-20T11:29:58;3.10;;;0.80;;
62990;SDS011;49084;48.204;16.202;2023-12-20T11:34:53;1.10;;;0.90;;
62990;SDS011;49084;48.204;16.202;2023-12-20T11:37:36;1.50;;;1.10;;
62990;SDS011;49084;48.204;16.202;2023-12-20T11:42:32;1.20;;;1.10;;
62990;SDS011;49084;48.204;16.202;2023-12-20T11:44:59;1.48;;;1.15;;
62990;SDS011;49084;48.204;16.202;2023-12-20T11:47:28;2.35;;;1.00;;
62990;SDS011;49084;48.204;16.202;2023-12-20T11:49:56;1.77;;;1.00;;
62990;SDS011;49084;48.204;16.202;2023-12-20T11:52:22;3.00;;;0.90;;
62990;SDS011;49084;48.204;16.202;2023-12-20T11:54:47;0.80;;;0.80;;
62990;SDS011;49084;48.204;16.202;2023-12-20T11:57:13;1.83;;;1.00;;
62990;SDS011;49084;48.204;16.202;2023-12-20T11:59:39;2.22;;;0.80;;
62990;SDS011;49084;48.204;16.202;2023-12-20T12:02:05;0.85;;;0.80;;
62990;SDS011;49084;48.204;16.202;2023-12-20T12:04:31;2.08;;;0.82;;
62990;SDS011;49084;48.204;16.202;2023-12-20T12:06:56;1.10;;;1.00;;
62990;SDS011;49084;48.204;16.202;2023-12-20T12:09:22;0.73;;;0.68;;
62990;SDS011;49084;48.204;16.202;2023-12-20T12:11:48;0.75;;;0.50;;
62990;SDS011;49084;48.204;16.202;2023-12-20T12:14:14;2.17;;;0.80;;
62990;SDS011;49084;48.204;16.202;2023-12-20T12:16:41;0.70;;;0.70;;
62990;SDS011;49084;48.204;16.202;2023-12-20T12:19:07;0.80;;;0.80;;
62990;SDS011;49084;48.204;16.202;2023-12-20T12:21:44;0.85;;;0.85;;
62990;SDS011;49084;48.204;16.202;2023-12-20T12:24:10;1.15;;;0.80;;
62990;SDS011;49084;48.204;16.202;2023-12-20T12:26:36;0.98;;;0.70;;
62990;SDS011;49084;48.204;16.202;2023-12-20T12:29:02;0.90;;;0.60;;
62990;SDS011;49084;48.204;16.202;2023-12-20T12:31:28;0.88;;;0.77;;
62990;SDS011;49084;48.204;16.202;2023-12-20T12:33:55;1.88;;;0.80;;
62990;SDS011;49084;48.204;16.202;2023-12-20T12:36:21;0.47;;;0.40;;
62990;SDS011;49084;48.204;16.202;2023-12-20T12:38:47;0.50;;;0.50;;
62990;SDS011;49084;48.204;16.202;2023-12-20T12:41:13;1.30;;;0.65;;
62990;SDS011;49084;48.204;16.202;2023-12-20T12:43:40;0.52;;;0.52;;
62990;SDS011;49084;48.204;16.202;2023-12-20T12:46:06;3.40;;;0.88;;
62990;SDS011;49084;48.204;16.202;2023-12-20T12:48:32;1.58;;;0.57;;
62990;SDS011;49084;48.204;16.202;2023-12-20T12:50:58;1.73;;;0.95;;
62990;SDS011;49084;48.204;16.202;2023-12-20T12:53:25;0.75;;;0.75;;
62990;SDS011;49084;48.204;16.202;2023-12-20T12:55:52;1.15;;;0.70;;
62990;SDS011;49084;48.204;16.202;2023-12-20T12:58:18;2.35;;;0.95;;
62990;SDS011;49084;48.204;16.202;2023-12-20T13:00:44;0.65;;;0.65;;
62990;SDS011;49084;48.204;16.202;2023-12-20T13:03:09;0.52;;;0.50;;
62990;SDS011;49084;48.204;16.202;2023-12-20T13:05:35;1.38;;;0.88;;
62990;SDS011;49084;48.204;16.202;2023-12-20T13:08:01;0.90;;;0.88;;
62990;SDS011;49084;48.204;16.202;2023-12-20T13:10:26;0.75;;;0.68;;
62990;SDS011;49084;48.204;16.202;2023-12-20T13:12:52;1.20;;;0.90;;
62990;SDS011;49084;48.204;16.202;2023-12-20T13:15:17;1.80;;;0.70;;
62990;SDS011;49084;48.204;16.202;2023-12-20T13:17:43;2.53;;;0.80;;
62990;SDS011;49084;48.204;16.202;2023-12-20T13:20:11;1.08;;;0.60;;
62990;SDS011;49084;48.204;16.202;2023-12-20T13:22:36;1.60;;;1.08;;
62990;SDS011;49084;48.204;16.202;2023-12-20T13:25:02;1.20;;;0.82;;
62990;SDS011;49084;48.204;16.202;2023-12-20T13:27:28;1.25;;;1.15;;
62990;SDS011;49084;48.204;16.202;2023-12-20T13:29:54;0.80;;;0.80;;
62990;SDS011;49084;48.204;16.202;2023-12-20T13:32:19;1.55;;;0.90;;
62990;SDS011;49084;48.204;16.202;2023-12-20T13:34:45;1.20;;;0.90;;
62990;SDS011;49084;48.204;16.202;2023-12-20T13:37:11;2.30;;;1.30;;
62990;SDS011;49084;48.204;16.202;2023-12-20T13:39:36;1.25;;;1.02;;
62990;SDS011;49084;48.204;16.202;2023-12-20T13:42:02;1.45;;;1.00;;
62990;SDS011;49084;48.204;16.202;2023-12-20T13:44:28;1.30;;;0.85;;
62990;SDS011;49084;48.204;16.202;2023-12-20T13:46:54;2.95;;;1.25;;
62990;SDS011;49084;48.204;16.202;2023-12-20T13:49:19;1.65;;;0.77;;
62990;SDS011;49084;48.204;16.202;2023-12-20T13:51:46;0.93;;;0.93;;
62990;SDS011;49084;48.204;16.202;2023-12-20T13:54:12;0.85;;;0.45;;
62990;SDS011;49084;48.204;16.202;2023-12-20T13:56:38;1.05;;;0.90;;
62990;SDS011;49084;48.204;16.202;2023-12-20T13:59:04;3.22;;;0.70;;
62990;SDS011;49084;48.204;16.202;2023-12-20T14:01:29;1.58;;;0.93;;
62990;SDS011;49084;48.204;16.202;2023-12-20T14:03:55;3.33;;;0.80;;
62990;SDS011;49084;48.204;16.202;2023-12-20T14:06:20;2.70;;;0.85;;
62990;SDS011;49084;48.204;16.202;2023-12-20T14:08:46;1.33;;;0.70;;
62990;SDS011;49084;48.204;16.202;2023-12-20T14:11:13;1.77;;;0.70;;
62990;SDS011;49084;48.204;16.202;2023-12-20T14:13:40;0.82;;;0.60;;
62990;SDS011;49084;48.204;16.202;2023-12-20T14:16:06;0.63;;;0.60;;
62990;SDS011;49084;48.204;16.202;2023-12-20T14:18:32;0.85;;;0.70;;
62990;SDS011;49084;48.204;16.202;2023-12-20T14:20:57;1.45;;;0.85;;
62990;SDS011;49084;48.204;16.202;2023-12-20T14:23:23;2.67;;;0.60;;
62990;SDS011;49084;48.204;16.202;2023-12-20T14:25:48;1.05;;;0.60;;
62990;SDS011;49084;48.204;16.202;2023-12-20T14:28:14;0.60;;;0.60;;
62990;SDS011;49084;48.204;16.202;2023-12-20T14:30:40;0.82;;;0.80;;
62990;SDS011;49084;48.204;16.202;2023-12-20T14:33:05;0.60;;;0.60;;
62990;SDS011;49084;48.204;16.202;2023-12-20T14:35:31;0.70;;;0.70;;
62990;SDS011;49084;48.204;16.202;2023-12-20T14:37:57;0.60;;;0.60;;
62990;SDS011;49084;48.204;16.202;2023-12-20T14:40:23;1.00;;;0.77;;